KRVS/RVS METAR and TAF weather

Enter ICAO airport designator
Station Type Date Time Source
KRVS METAR 2019/02/17 15:53 UTC NOAA

KRVS 171553Z 33009G17KT 10SM FEW023 01/M05 A2999 RMK AO2 SLP166 T00111050


Station Type Date Time Source
KRVS Decoded METAR 2019/02/17 15:53 UTC NOAA

TULSA JONES JR. AIRPORT, OK, United States (KRVS) 36-03N 095-59W 200M
Feb 17, 2019 - 10:53 AM EST / 2019.02.17 1553 UTC
Wind: from the NNW (330 degrees) at 10 MPH (9 KT) gusting to 20 MPH (17 KT):0
Visibility: 10 mile(s):0
Sky conditions: mostly clear
Temperature: 34.0 F (1.1 C)
Windchill: 26 F (-3 C):1
Dew Point: 23.0 F (-5.0 C)
Relative Humidity: 63%
Pressure (altimeter): 29.99 in. Hg (1015 hPa)
ob: KRVS 171553Z 33009G17KT 10SM FEW023 01/M05 A2999 RMK AO2 SLP166 T00111050
cycle: 16

Station Type Date Time Source
KRVS TAF 2019/02/17 14:52 UTC NOAA

TAF KRVS 171350Z 1714/1812 29005KT P6SM SCT015 BKN025
FM171500 30009KT P6SM SCT025
FM171600 32008KT P6SM SKC
FM180600 36006KT P6SM SCT150


Example: see airport list